sensor_id;sensor_type;location;lat;lon;timestamp;temperature;humidity
8707;DHT22;4390;49.302;9.306;2023-04-24T00:01:02;12.00;98.30
8707;DHT22;4390;49.302;9.306;2023-04-24T00:03:29;12.00;98.30
8707;DHT22;4390;49.302;9.306;2023-04-24T00:05:57;11.90;98.30
8707;DHT22;4390;49.302;9.306;2023-04-24T00:08:26;12.00;98.30
8707;DHT22;4390;49.302;9.306;2023-04-24T00:10:52;12.00;98.30
8707;DHT22;4390;49.302;9.306;2023-04-24T00:13:19;12.00;98.30
8707;DHT22;4390;49.302;9.306;2023-04-24T00:15:46;12.20;98.30
8707;DHT22;4390;49.302;9.306;2023-04-24T00:18:12;12.10;98.30
8707;DHT22;4390;49.302;9.306;2023-04-24T00:20:39;11.90;98.30
8707;DHT22;4390;49.302;9.306;2023-04-24T00:23:06;11.90;98.30
8707;DHT22;4390;49.302;9.306;2023-04-24T00:25:33;11.90;98.30
8707;DHT22;4390;49.302;9.306;2023-04-24T00:28:00;11.90;98.30
8707;DHT22;4390;49.302;9.306;2023-04-24T00:30:26;11.80;98.30
8707;DHT22;4390;49.302;9.306;2023-04-24T00:32:53;11.90;98.30
8707;DHT22;4390;49.302;9.306;2023-04-24T00:35:20;11.90;98.30
8707;DHT22;4390;49.302;9.306;2023-04-24T00:37:47;11.70;98.30
8707;DHT22;4390;49.302;9.306;2023-04-24T00:40:14;11.90;98.30
8707;DHT22;4390;49.302;9.306;2023-04-24T00:42:41;11.80;98.30
8707;DHT22;4390;49.302;9.306;2023-04-24T00:45:09;11.90;98.30
8707;DHT22;4390;49.302;9.306;2023-04-24T00:47:36;11.90;98.30
8707;DHT22;4390;49.302;9.306;2023-04-24T00:50:04;11.90;98.30
8707;DHT22;4390;49.302;9.306;2023-04-24T00:52:32;11.90;98.30
8707;DHT22;4390;49.302;9.306;2023-04-24T00:54:59;12.00;98.30
8707;DHT22;4390;49.302;9.306;2023-04-24T00:57:26;12.10;98.30
8707;DHT22;4390;49.302;9.306;2023-04-24T00:59:53;12.20;98.30
8707;DHT22;4390;49.302;9.306;2023-04-24T01:02:21;12.00;98.30
8707;DHT22;4390;49.302;9.306;2023-04-24T01:04:50;12.00;98.30
8707;DHT22;4390;49.302;9.306;2023-04-24T01:07:19;11.90;98.30
8707;DHT22;4390;49.302;9.306;2023-04-24T01:09:48;11.70;98.30
8707;DHT22;4390;49.302;9.306;2023-04-24T01:12:18;11.80;98.30
8707;DHT22;4390;49.302;9.306;2023-04-24T01:14:45;12.00;98.30
8707;DHT22;4390;49.302;9.306;2023-04-24T01:17:12;11.90;98.30
8707;DHT22;4390;49.302;9.306;2023-04-24T01:19:39;11.90;98.30
8707;DHT22;4390;49.302;9.306;2023-04-24T01:22:16;12.00;98.30
8707;DHT22;4390;49.302;9.306;2023-04-24T01:24:43;12.10;98.30
8707;DHT22;4390;49.302;9.306;2023-04-24T01:27:12;12.10;98.30
8707;DHT22;4390;49.302;9.306;2023-04-24T01:29:39;12.10;98.30
8707;DHT22;4390;49.302;9.306;2023-04-24T01:32:06;11.90;98.30
8707;DHT22;4390;49.302;9.306;2023-04-24T01:34:33;11.90;98.30
8707;DHT22;4390;49.302;9.306;2023-04-24T01:37:00;11.80;98.30
8707;DHT22;4390;49.302;9.306;2023-04-24T01:39:27;11.80;98.30
8707;DHT22;4390;49.302;9.306;2023-04-24T01:41:55;12.00;98.30
8707;DHT22;4390;49.302;9.306;2023-04-24T01:44:23;12.00;98.30
8707;DHT22;4390;49.302;9.306;2023-04-24T01:46:50;11.90;98.30
8707;DHT22;4390;49.302;9.306;2023-04-24T01:49:17;11.70;98.30
8707;DHT22;4390;49.302;9.306;2023-04-24T01:51:44;11.90;98.30
8707;DHT22;4390;49.302;9.306;2023-04-24T01:54:11;11.90;98.30
8707;DHT22;4390;49.302;9.306;2023-04-24T01:56:42;11.90;98.30
8707;DHT22;4390;49.302;9.306;2023-04-24T01:59:10;11.80;98.30
8707;DHT22;4390;49.302;9.306;2023-04-24T02:01:38;11.70;98.30
8707;DHT22;4390;49.302;9.306;2023-04-24T02:04:06;11.50;98.30
8707;DHT22;4390;49.302;9.306;2023-04-24T02:06:35;11.60;98.30
8707;DHT22;4390;49.302;9.306;2023-04-24T02:09:01;11.50;98.30
8707;DHT22;4390;49.302;9.306;2023-04-24T02:11:29;11.80;98.30
8707;DHT22;4390;49.302;9.306;2023-04-24T02:13:56;11.80;98.30
8707;DHT22;4390;49.302;9.306;2023-04-24T02:16:23;11.80;98.30
8707;DHT22;4390;49.302;9.306;2023-04-24T02:18:50;11.90;98.30
8707;DHT22;4390;49.302;9.306;2023-04-24T02:21:17;11.90;98.30
8707;DHT22;4390;49.302;9.306;2023-04-24T02:23:43;12.00;98.30
8707;DHT22;4390;49.302;9.306;2023-04-24T02:26:12;11.80;98.30
8707;DHT22;4390;49.302;9.306;2023-04-24T02:28:39;11.70;98.30
8707;DHT22;4390;49.302;9.306;2023-04-24T02:31:06;11.60;98.30
8707;DHT22;4390;49.302;9.306;2023-04-24T02:33:33;11.70;98.30
8707;DHT22;4390;49.302;9.306;2023-04-24T02:35:59;11.70;98.30
8707;DHT22;4390;49.302;9.306;2023-04-24T02:38:26;11.60;98.30
8707;DHT22;4390;49.302;9.306;2023-04-24T02:40:53;11.70;98.30
8707;DHT22;4390;49.302;9.306;2023-04-24T02:43:20;11.70;98.30
8707;DHT22;4390;49.302;9.306;2023-04-24T02:45:48;11.80;98.30
8707;DHT22;4390;49.302;9.306;2023-04-24T02:48:15;12.00;98.30
8707;DHT22;4390;49.302;9.306;2023-04-24T02:50:42;12.00;98.30
8707;DHT22;4390;49.302;9.306;2023-04-24T02:53:08;12.00;98.30
8707;DHT22;4390;49.302;9.306;2023-04-24T02:55:35;11.90;98.30
8707;DHT22;4390;49.302;9.306;2023-04-24T02:58:02;11.80;98.30
8707;DHT22;4390;49.302;9.306;2023-04-24T03:00:29;11.60;98.30
8707;DHT22;4390;49.302;9.306;2023-04-24T03:02:56;11.70;98.30
8707;DHT22;4390;49.302;9.306;2023-04-24T03:05:23;11.60;98.30
8707;DHT22;4390;49.302;9.306;2023-04-24T03:07:50;11.40;98.30
8707;DHT22;4390;49.302;9.306;2023-04-24T03:10:20;11.50;98.30
8707;DHT22;4390;49.302;9.306;2023-04-24T03:12:49;11.60;98.30
8707;DHT22;4390;49.302;9.306;2023-04-24T03:15:18;11.50;98.30
8707;DHT22;4390;49.302;9.306;2023-04-24T03:17:44;11.40;98.30
8707;DHT22;4390;49.302;9.306;2023-04-24T03:20:11;11.40;98.30
8707;DHT22;4390;49.302;9.306;2023-04-24T03:22:38;11.50;98.30
8707;DHT22;4390;49.302;9.306;2023-04-24T03:25:07;11.60;98.30
8707;DHT22;4390;49.302;9.306;2023-04-24T03:27:36;11.60;98.30
8707;DHT22;4390;49.302;9.306;2023-04-24T03:30:15;11.50;98.30
8707;DHT22;4390;49.302;9.306;2023-04-24T03:32:47;11.30;98.30
8707;DHT22;4390;49.302;9.306;2023-04-24T03:35:19;11.40;98.30
8707;DHT22;4390;49.302;9.306;2023-04-24T03:37:48;11.60;98.30
8707;DHT22;4390;49.302;9.306;2023-04-24T03:40:48;11.50;98.30
8707;DHT22;4390;49.302;9.306;2023-04-24T03:43:30;11.50;98.30
8707;DHT22;4390;49.302;9.306;2023-04-24T03:45:59;11.40;98.30
8707;DHT22;4390;49.302;9.306;2023-04-24T03:48:26;11.30;98.30
8707;DHT22;4390;49.302;9.306;2023-04-24T03:50:52;11.40;98.30
8707;DHT22;4390;49.302;9.306;2023-04-24T03:53:19;11.50;98.30
8707;DHT22;4390;49.302;9.306;2023-04-24T03:55:47;11.50;98.30
8707;DHT22;4390;49.302;9.306;2023-04-24T03:58:14;11.40;98.30
8707;DHT22;4390;49.302;9.306;2023-04-24T04:00:41;11.50;98.30
8707;DHT22;4390;49.302;9.306;2023-04-24T04:03:28;11.30;98.30
8707;DHT22;4390;49.302;9.306;2023-04-24T04:05:55;11.10;98.30
8707;DHT22;4390;49.302;9.306;2023-04-24T04:08:22;11.10;98.30
8707;DHT22;4390;49.302;9.306;2023-04-24T04:10:48;10.70;98.30
8707;DHT22;4390;49.302;9.306;2023-04-24T04:13:15;10.30;98.30
8707;DHT22;4390;49.302;9.306;2023-04-24T04:15:42;10.20;98.30
8707;DHT22;4390;49.302;9.306;2023-04-24T04:18:09;10.30;98.30
8707;DHT22;4390;49.302;9.306;2023-04-24T04:20:36;10.10;98.30
8707;DHT22;4390;49.302;9.306;2023-04-24T04:23:03;9.90;98.30
8707;DHT22;4390;49.302;9.306;2023-04-24T04:26:03;9.70;98.30
8707;DHT22;4390;49.302;9.306;2023-04-24T04:28:44;9.70;98.30
8707;DHT22;4390;49.302;9.306;2023-04-24T04:31:11;9.70;98.30
8707;DHT22;4390;49.302;9.306;2023-04-24T04:33:39;9.30;98.30
8707;DHT22;4390;49.302;9.306;2023-04-24T04:36:09;9.30;98.30
8707;DHT22;4390;49.302;9.306;2023-04-24T04:38:40;9.40;98.30
8707;DHT22;4390;49.302;9.306;2023-04-24T04:41:27;9.30;98.30
8707;DHT22;4390;49.302;9.306;2023-04-24T04:43:54;9.40;98.30
8707;DHT22;4390;49.302;9.306;2023-04-24T04:46:21;9.40;98.30
8707;DHT22;4390;49.302;9.306;2023-04-24T04:49:05;9.40;98.30
8707;DHT22;4390;49.302;9.306;2023-04-24T04:51:32;9.40;98.30
8707;DHT22;4390;49.302;9.306;2023-04-24T04:53:59;9.80;98.30
8707;DHT22;4390;49.302;9.306;2023-04-24T04:56:26;10.00;98.30
8707;DHT22;4390;49.302;9.306;2023-04-24T04:58:53;10.30;98.30
8707;DHT22;4390;49.302;9.306;2023-04-24T05:01:20;10.20;98.30
8707;DHT22;4390;49.302;9.306;2023-04-24T05:03:49;9.90;98.30
8707;DHT22;4390;49.302;9.306;2023-04-24T05:06:17;9.90;98.30
8707;DHT22;4390;49.302;9.306;2023-04-24T05:08:45;10.10;98.30
8707;DHT22;4390;49.302;9.306;2023-04-24T05:11:23;9.80;98.30
8707;DHT22;4390;49.302;9.306;2023-04-24T05:13:50;9.50;98.30
8707;DHT22;4390;49.302;9.306;2023-04-24T05:16:22;9.20;98.30
8707;DHT22;4390;49.302;9.306;2023-04-24T05:18:52;9.30;98.30
8707;DHT22;4390;49.302;9.306;2023-04-24T05:21:23;9.40;98.30
8707;DHT22;4390;49.302;9.306;2023-04-24T05:23:51;9.10;98.30
8707;DHT22;4390;49.302;9.306;2023-04-24T05:26:30;9.20;98.30
8707;DHT22;4390;49.302;9.306;2023-04-24T05:28:58;9.30;98.30
8707;DHT22;4390;49.302;9.306;2023-04-24T05:31:25;9.40;98.30
8707;DHT22;4390;49.302;9.306;2023-04-24T05:33:52;9.40;98.30
8707;DHT22;4390;49.302;9.306;2023-04-24T05:36:19;9.40;98.30
8707;DHT22;4390;49.302;9.306;2023-04-24T05:38:46;9.50;98.30
8707;DHT22;4390;49.302;9.306;2023-04-24T05:41:13;9.30;98.30
8707;DHT22;4390;49.302;9.306;2023-04-24T05:43:41;9.20;98.30
8707;DHT22;4390;49.302;9.306;2023-04-24T05:46:08;9.10;98.30
8707;DHT22;4390;49.302;9.306;2023-04-24T05:48:35;9.20;98.30
8707;DHT22;4390;49.302;9.306;2023-04-24T05:51:03;9.40;98.30
8707;DHT22;4390;49.302;9.306;2023-04-24T05:53:30;9.50;98.30
8707;DHT22;4390;49.302;9.306;2023-04-24T05:55:57;9.30;98.30
8707;DHT22;4390;49.302;9.306;2023-04-24T05:58:24;9.30;98.30
8707;DHT22;4390;49.302;9.306;2023-04-24T06:00:50;9.60;98.30
8707;DHT22;4390;49.302;9.306;2023-04-24T06:03:17;9.80;98.30
8707;DHT22;4390;49.302;9.306;2023-04-24T06:05:46;9.70;98.30
8707;DHT22;4390;49.302;9.306;2023-04-24T06:08:13;9.80;98.30
8707;DHT22;4390;49.302;9.306;2023-04-24T06:10:42;9.90;98.30
8707;DHT22;4390;49.302;9.306;2023-04-24T06:13:09;10.00;98.30
8707;DHT22;4390;49.302;9.306;2023-04-24T06:15:41;10.10;98.30
8707;DHT22;4390;49.302;9.306;2023-04-24T06:18:27;10.10;98.30
8707;DHT22;4390;49.302;9.306;2023-04-24T06:20:53;10.00;98.30
8707;DHT22;4390;49.302;9.306;2023-04-24T06:23:22;10.20;98.30
8707;DHT22;4390;49.302;9.306;2023-04-24T06:25:49;10.10;98.30
8707;DHT22;4390;49.302;9.306;2023-04-24T06:28:16;9.90;98.30
8707;DHT22;4390;49.302;9.306;2023-04-24T06:30:43;9.80;98.30
8707;DHT22;4390;49.302;9.306;2023-04-24T06:33:11;9.80;98.30
8707;DHT22;4390;49.302;9.306;2023-04-24T06:35:46;9.50;98.30
8707;DHT22;4390;49.302;9.306;2023-04-24T06:38:12;9.40;98.30
8707;DHT22;4390;49.302;9.306;2023-04-24T06:40:39;9.30;98.30
8707;DHT22;4390;49.302;9.306;2023-04-24T06:43:06;9.20;98.30
8707;DHT22;4390;49.302;9.306;2023-04-24T06:45:33;9.40;98.30
8707;DHT22;4390;49.302;9.306;2023-04-24T06:48:00;9.50;98.30
8707;DHT22;4390;49.302;9.306;2023-04-24T06:50:27;9.60;98.30
8707;DHT22;4390;49.302;9.306;2023-04-24T06:52:53;9.80;98.30
8707;DHT22;4390;49.302;9.306;2023-04-24T06:55:20;9.80;98.30
8707;DHT22;4390;49.302;9.306;2023-04-24T06:57:47;9.60;98.30
8707;DHT22;4390;49.302;9.306;2023-04-24T07:00:14;9.40;98.30
8707;DHT22;4390;49.302;9.306;2023-04-24T07:02:41;9.50;98.30
8707;DHT22;4390;49.302;9.306;2023-04-24T07:05:08;9.70;98.30
8707;DHT22;4390;49.302;9.306;2023-04-24T07:07:35;9.90;98.30
8707;DHT22;4390;49.302;9.306;2023-04-24T07:10:05;10.00;98.30
8707;DHT22;4390;49.302;9.306;2023-04-24T07:12:32;9.90;98.30
8707;DHT22;4390;49.302;9.306;2023-04-24T07:15:00;10.00;98.30
8707;DHT22;4390;49.302;9.306;2023-04-24T07:17:27;10.10;98.30
8707;DHT22;4390;49.302;9.306;2023-04-24T07:19:53;9.80;98.30
8707;DHT22;4390;49.302;9.306;2023-04-24T07:22:20;9.90;98.30
8707;DHT22;4390;49.302;9.306;2023-04-24T07:24:47;9.60;98.30
8707;DHT22;4390;49.302;9.306;2023-04-24T07:27:14;9.50;98.30
8707;DHT22;4390;49.302;9.306;2023-04-24T07:29:42;9.50;98.30
8707;DHT22;4390;49.302;9.306;2023-04-24T07:32:09;9.60;98.20
8707;DHT22;4390;49.302;9.306;2023-04-24T07:34:35;9.50;98.10
8707;DHT22;4390;49.302;9.306;2023-04-24T07:37:02;9.70;97.70
8707;DHT22;4390;49.302;9.306;2023-04-24T07:39:29;9.60;97.30
8707;DHT22;4390;49.302;9.306;2023-04-24T07:41:56;9.70;97.60
8707;DHT22;4390;49.302;9.306;2023-04-24T07:44:25;9.90;97.40
8707;DHT22;4390;49.302;9.306;2023-04-24T07:46:52;9.90;96.90
8707;DHT22;4390;49.302;9.306;2023-04-24T07:49:19;9.80;96.60
8707;DHT22;4390;49.302;9.306;2023-04-24T07:51:46;9.50;95.70
8707;DHT22;4390;49.302;9.306;2023-04-24T07:54:13;9.60;96.00
8707;DHT22;4390;49.302;9.306;2023-04-24T07:56:40;9.70;95.90
8707;DHT22;4390;49.302;9.306;2023-04-24T07:59:09;9.60;95.20
8707;DHT22;4390;49.302;9.306;2023-04-24T08:01:37;9.40;96.10
8707;DHT22;4390;49.302;9.306;2023-04-24T08:04:04;9.60;95.30
8707;DHT22;4390;49.302;9.306;2023-04-24T08:06:31;9.40;95.30
8707;DHT22;4390;49.302;9.306;2023-04-24T08:08:59;9.30;95.40
8707;DHT22;4390;49.302;9.306;2023-04-24T08:11:26;9.20;95.40
8707;DHT22;4390;49.302;9.306;2023-04-24T08:13:53;9.30;95.60
8707;DHT22;4390;49.302;9.306;2023-04-24T08:16:21;9.40;95.20
8707;DHT22;4390;49.302;9.306;2023-04-24T08:18:48;9.40;94.90
8707;DHT22;4390;49.302;9.306;2023-04-24T08:21:15;9.40;94.70
8707;DHT22;4390;49.302;9.306;2023-04-24T08:23:44;9.30;94.90
8707;DHT22;4390;49.302;9.306;2023-04-24T08:26:11;9.10;96.40
8707;DHT22;4390;49.302;9.306;2023-04-24T08:28:38;8.80;97.80
8707;DHT22;4390;49.302;9.306;2023-04-24T08:31:04;8.80;98.30
8707;DHT22;4390;49.302;9.306;2023-04-24T08:33:31;9.00;98.30
8707;DHT22;4390;49.302;9.306;2023-04-24T08:36:02;9.10;98.30
8707;DHT22;4390;49.302;9.306;2023-04-24T08:38:30;9.10;98.10
8707;DHT22;4390;49.302;9.306;2023-04-24T08:40:58;8.90;98.20
8707;DHT22;4390;49.302;9.306;2023-04-24T08:43:26;8.90;98.30
8707;DHT22;4390;49.302;9.306;2023-04-24T08:45:56;8.80;98.30
8707;DHT22;4390;49.302;9.306;2023-04-24T08:48:23;8.60;98.30
8707;DHT22;4390;49.302;9.306;2023-04-24T08:50:58;8.70;98.30
8707;DHT22;4390;49.302;9.306;2023-04-24T08:53:26;9.00;98.30
8707;DHT22;4390;49.302;9.306;2023-04-24T08:55:55;9.00;98.30
8707;DHT22;4390;49.302;9.306;2023-04-24T08:58:25;9.00;98.10
8707;DHT22;4390;49.302;9.306;2023-04-24T09:00:54;9.10;97.70
8707;DHT22;4390;49.302;9.306;2023-04-24T09:03:22;9.20;97.70
8707;DHT22;4390;49.302;9.306;2023-04-24T09:05:50;9.50;97.40
8707;DHT22;4390;49.302;9.306;2023-04-24T09:08:18;9.90;96.50
8707;DHT22;4390;49.302;9.306;2023-04-24T09:10:46;10.40;95.70
8707;DHT22;4390;49.302;9.306;2023-04-24T09:13:16;10.50;94.40
8707;DHT22;4390;49.302;9.306;2023-04-24T09:15:43;10.50;94.60
8707;DHT22;4390;49.302;9.306;2023-04-24T09:18:10;10.40;94.40
8707;DHT22;4390;49.302;9.306;2023-04-24T09:21:19;10.60;93.90
8707;DHT22;4390;49.302;9.306;2023-04-24T09:23:43;10.40;92.40
8707;DHT22;4390;49.302;9.306;2023-04-24T09:26:10;9.90;94.00
8707;DHT22;4390;49.302;9.306;2023-04-24T09:28:39;10.30;95.20
8707;DHT22;4390;49.302;9.306;2023-04-24T09:31:13;10.60;94.20
8707;DHT22;4390;49.302;9.306;2023-04-24T09:33:53;10.70;94.40
8707;DHT22;4390;49.302;9.306;2023-04-24T09:36:30;10.90;93.50
8707;DHT22;4390;49.302;9.306;2023-04-24T09:39:01;10.90;92.50
8707;DHT22;4390;49.302;9.306;2023-04-24T09:41:28;10.70;91.40
8707;DHT22;4390;49.302;9.306;2023-04-24T09:44:10;10.60;91.70
8707;DHT22;4390;49.302;9.306;2023-04-24T09:46:37;10.30;92.40
8707;DHT22;4390;49.302;9.306;2023-04-24T09:49:13;10.20;91.60
8707;DHT22;4390;49.302;9.306;2023-04-24T09:51:42;10.10;90.50
8707;DHT22;4390;49.302;9.306;2023-04-24T09:54:20;10.00;91.50
8707;DHT22;4390;49.302;9.306;2023-04-24T09:56:51;10.00;91.00
8707;DHT22;4390;49.302;9.306;2023-04-24T09:59:19;10.10;91.70
8707;DHT22;4390;49.302;9.306;2023-04-24T10:01:46;10.40;91.90
8707;DHT22;4390;49.302;9.306;2023-04-24T10:04:17;10.40;91.30
8707;DHT22;4390;49.302;9.306;2023-04-24T10:06:48;10.70;91.80
8707;DHT22;4390;49.302;9.306;2023-04-24T10:09:16;10.90;91.50
8707;DHT22;4390;49.302;9.306;2023-04-24T10:11:45;10.60;90.00
8707;DHT22;4390;49.302;9.306;2023-04-24T10:14:14;10.30;89.30
8707;DHT22;4390;49.302;9.306;2023-04-24T10:16:43;9.90;90.10
8707;DHT22;4390;49.302;9.306;2023-04-24T10:19:10;9.70;91.50
8707;DHT22;4390;49.302;9.306;2023-04-24T10:21:41;9.70;91.20
8707;DHT22;4390;49.302;9.306;2023-04-24T10:24:18;9.80;91.30
8707;DHT22;4390;49.302;9.306;2023-04-24T10:26:47;9.80;90.90
8707;DHT22;4390;49.302;9.306;2023-04-24T10:29:18;9.70;90.40
8707;DHT22;4390;49.302;9.306;2023-04-24T10:31:45;10.00;90.40
8707;DHT22;4390;49.302;9.306;2023-04-24T10:34:15;10.60;90.20
8707;DHT22;4390;49.302;9.306;2023-04-24T10:36:47;10.80;89.60
8707;DHT22;4390;49.302;9.306;2023-04-24T10:39:14;10.80;89.80
8707;DHT22;4390;49.302;9.306;2023-04-24T10:41:42;11.00;89.70
8707;DHT22;4390;49.302;9.306;2023-04-24T10:44:12;11.00;89.50
8707;DHT22;4390;49.302;9.306;2023-04-24T10:46:45;11.00;90.40
8707;DHT22;4390;49.302;9.306;2023-04-24T10:49:12;11.10;88.80
8707;DHT22;4390;49.302;9.306;2023-04-24T10:51:51;11.20;88.70
8707;DHT22;4390;49.302;9.306;2023-04-24T10:54:36;11.30;88.70
8707;DHT22;4390;49.302;9.306;2023-04-24T11:02:46;11.90;88.30
8707;DHT22;4390;49.302;9.306;2023-04-24T11:05:16;11.40;87.80
8707;DHT22;4390;49.302;9.306;2023-04-24T11:08:13;11.30;88.80
8707;DHT22;4390;49.302;9.306;2023-04-24T11:11:07;11.40;88.30
8707;DHT22;4390;49.302;9.306;2023-04-24T11:18:52;11.10;88.30
8707;DHT22;4390;49.302;9.306;2023-04-24T11:21:22;11.00;88.00
8707;DHT22;4390;49.302;9.306;2023-04-24T11:23:49;10.80;87.70
8707;DHT22;4390;49.302;9.306;2023-04-24T11:26:21;10.20;88.90
8707;DHT22;4390;49.302;9.306;2023-04-24T11:28:50;9.70;90.40
8707;DHT22;4390;49.302;9.306;2023-04-24T11:31:37;9.30;93.10
8707;DHT22;4390;49.302;9.306;2023-04-24T11:34:12;9.20;94.30
8707;DHT22;4390;49.302;9.306;2023-04-24T11:36:44;9.10;94.70
8707;DHT22;4390;49.302;9.306;2023-04-24T11:39:11;9.20;94.70
8707;DHT22;4390;49.302;9.306;2023-04-24T11:41:38;8.70;96.50
8707;DHT22;4390;49.302;9.306;2023-04-24T11:44:08;8.60;97.20
8707;DHT22;4390;49.302;9.306;2023-04-24T11:46:35;8.70;97.00
8707;DHT22;4390;49.302;9.306;2023-04-24T11:49:05;9.00;95.90
8707;DHT22;4390;49.302;9.306;2023-04-24T11:51:35;9.40;96.10
8707;DHT22;4390;49.302;9.306;2023-04-24T11:54:16;10.20;95.60
8707;DHT22;4390;49.302;9.306;2023-04-24T11:56:47;11.10;92.90
8707;DHT22;4390;49.302;9.306;2023-04-24T11:59:14;11.60;92.10
8707;DHT22;4390;49.302;9.306;2023-04-24T12:01:48;12.10;90.30
8707;DHT22;4390;49.302;9.306;2023-04-24T12:04:16;12.60;89.50
8707;DHT22;4390;49.302;9.306;2023-04-24T12:07:03;12.60;88.90
8707;DHT22;4390;49.302;9.306;2023-04-24T12:09:42;12.00;88.10
8707;DHT22;4390;49.302;9.306;2023-04-24T12:12:10;12.10;87.60
8707;DHT22;4390;49.302;9.306;2023-04-24T12:14:49;11.90;87.60
8707;DHT22;4390;49.302;9.306;2023-04-24T12:17:17;11.60;88.30
8707;DHT22;4390;49.302;9.306;2023-04-24T12:19:47;11.10;88.50
8707;DHT22;4390;49.302;9.306;2023-04-24T12:22:14;10.90;88.70
8707;DHT22;4390;49.302;9.306;2023-04-24T12:24:58;10.50;89.70
8707;DHT22;4390;49.302;9.306;2023-04-24T12:27:26;10.40;90.00
8707;DHT22;4390;49.302;9.306;2023-04-24T12:29:56;10.10;90.40
8707;DHT22;4390;49.302;9.306;2023-04-24T12:32:23;9.80;91.60
8707;DHT22;4390;49.302;9.306;2023-04-24T12:34:54;9.90;92.60
8707;DHT22;4390;49.302;9.306;2023-04-24T12:37:24;9.70;92.50
8707;DHT22;4390;49.302;9.306;2023-04-24T12:42:30;10.10;92.70
8707;DHT22;4390;49.302;9.306;2023-04-24T12:45:05;10.10;92.70
8707;DHT22;4390;49.302;9.306;2023-04-24T12:47:34;10.40;91.60
8707;DHT22;4390;49.302;9.306;2023-04-24T12:50:01;10.50;90.50
8707;DHT22;4390;49.302;9.306;2023-04-24T12:52:31;10.00;89.40
8707;DHT22;4390;49.302;9.306;2023-04-24T12:55:00;10.00;90.80
8707;DHT22;4390;49.302;9.306;2023-04-24T12:57:29;9.90;90.80
8707;DHT22;4390;49.302;9.306;2023-04-24T12:59:57;10.30;90.10
8707;DHT22;4390;49.302;9.306;2023-04-24T13:02:26;10.40;89.50
8707;DHT22;4390;49.302;9.306;2023-04-24T13:04:54;10.70;89.30
8707;DHT22;4390;49.302;9.306;2023-04-24T13:07:21;11.10;88.50
8707;DHT22;4390;49.302;9.306;2023-04-24T13:09:49;11.20;88.30
8707;DHT22;4390;49.302;9.306;2023-04-24T13:12:17;11.30;87.80
8707;DHT22;4390;49.302;9.306;2023-04-24T13:14:45;11.40;88.30
8707;DHT22;4390;49.302;9.306;2023-04-24T13:17:14;11.80;87.00
8707;DHT22;4390;49.302;9.306;2023-04-24T13:19:42;11.40;86.20
8707;DHT22;4390;49.302;9.306;2023-04-24T13:22:11;11.00;86.90
8707;DHT22;4390;49.302;9.306;2023-04-24T13:24:38;10.80;87.10
8707;DHT22;4390;49.302;9.306;2023-04-24T13:27:10;10.60;87.40
8707;DHT22;4390;49.302;9.306;2023-04-24T13:29:37;10.70;86.80
8707;DHT22;4390;49.302;9.306;2023-04-24T13:32:07;11.10;86.40
8707;DHT22;4390;49.302;9.306;2023-04-24T13:34:34;11.40;86.30
8707;DHT22;4390;49.302;9.306;2023-04-24T13:37:04;11.20;87.80
8707;DHT22;4390;49.302;9.306;2023-04-24T13:39:36;10.80;86.70
8707;DHT22;4390;49.302;9.306;2023-04-24T13:42:07;11.00;86.90
8707;DHT22;4390;49.302;9.306;2023-04-24T13:44:37;11.20;87.30
8707;DHT22;4390;49.302;9.306;2023-04-24T13:47:05;11.30;87.50
8707;DHT22;4390;49.302;9.306;2023-04-24T13:49:33;11.20;88.10
8707;DHT22;4390;49.302;9.306;2023-04-24T13:52:01;11.40;88.20
8707;DHT22;4390;49.302;9.306;2023-04-24T13:54:29;11.70;87.40
8707;DHT22;4390;49.302;9.306;2023-04-24T13:56:57;11.50;86.80
8707;DHT22;4390;49.302;9.306;2023-04-24T13:59:28;11.50;87.30
8707;DHT22;4390;49.302;9.306;2023-04-24T14:02:00;11.70;86.80
8707;DHT22;4390;49.302;9.306;2023-04-24T14:04:28;11.30;87.00
8707;DHT22;4390;49.302;9.306;2023-04-24T14:06:57;11.30;87.60
8707;DHT22;4390;49.302;9.306;2023-04-24T14:09:24;11.30;88.40
8707;DHT22;4390;49.302;9.306;2023-04-24T14:11:52;11.30;89.10
8707;DHT22;4390;49.302;9.306;2023-04-24T14:14:19;11.30;88.30
8707;DHT22;4390;49.302;9.306;2023-04-24T14:16:45;11.30;88.30
8707;DHT22;4390;49.302;9.306;2023-04-24T14:19:12;11.30;87.90
8707;DHT22;4390;49.302;9.306;2023-04-24T14:21:39;11.40;86.90
8707;DHT22;4390;49.302;9.306;2023-04-24T14:24:06;11.30;86.30
8707;DHT22;4390;49.302;9.306;2023-04-24T14:26:32;11.20;85.90
8707;DHT22;4390;49.302;9.306;2023-04-24T14:28:59;10.90;86.50
8707;DHT22;4390;49.302;9.306;2023-04-24T14:31:41;10.70;85.90
8707;DHT22;4390;49.302;9.306;2023-04-24T14:34:08;10.50;86.80
8707;DHT22;4390;49.302;9.306;2023-04-24T14:36:35;10.50;86.30
8707;DHT22;4390;49.302;9.306;2023-04-24T14:39:02;10.70;86.30
8707;DHT22;4390;49.302;9.306;2023-04-24T14:41:33;10.80;85.90
8707;DHT22;4390;49.302;9.306;2023-04-24T14:44:03;10.90;86.30
8707;DHT22;4390;49.302;9.306;2023-04-24T14:46:30;10.90;85.50
8707;DHT22;4390;49.302;9.306;2023-04-24T14:49:00;10.90;85.20
8707;DHT22;4390;49.302;9.306;2023-04-24T14:51:28;11.10;84.80
8707;DHT22;4390;49.302;9.306;2023-04-24T14:53:56;11.20;84.70
8707;DHT22;4390;49.302;9.306;2023-04-24T14:56:23;11.20;84.90
8707;DHT22;4390;49.302;9.306;2023-04-24T14:58:51;11.00;85.30
8707;DHT22;4390;49.302;9.306;2023-04-24T15:01:18;11.10;85.60
8707;DHT22;4390;49.302;9.306;2023-04-24T15:03:45;11.30;86.00
8707;DHT22;4390;49.302;9.306;2023-04-24T15:06:13;11.20;86.60
8707;DHT22;4390;49.302;9.306;2023-04-24T15:08:41;11.10;87.10
8707;DHT22;4390;49.302;9.306;2023-04-24T15:11:10;11.10;87.60
8707;DHT22;4390;49.302;9.306;2023-04-24T15:13:37;11.10;87.50
8707;DHT22;4390;49.302;9.306;2023-04-24T15:16:05;11.10;87.30
8707;DHT22;4390;49.302;9.306;2023-04-24T15:18:32;11.20;86.70
8707;DHT22;4390;49.302;9.306;2023-04-24T15:21:01;11.40;86.70
8707;DHT22;4390;49.302;9.306;2023-04-24T15:23:28;11.10;86.60
8707;DHT22;4390;49.302;9.306;2023-04-24T15:25:56;11.10;87.10
8707;DHT22;4390;49.302;9.306;2023-04-24T15:28:25;11.10;87.60
8707;DHT22;4390;49.302;9.306;2023-04-24T15:30:52;11.20;87.20
8707;DHT22;4390;49.302;9.306;2023-04-24T15:33:19;11.40;86.60
8707;DHT22;4390;49.302;9.306;2023-04-24T15:35:49;11.30;86.40
8707;DHT22;4390;49.302;9.306;2023-04-24T15:38:18;11.20;86.80
8707;DHT22;4390;49.302;9.306;2023-04-24T15:40:45;11.20;86.50
8707;DHT22;4390;49.302;9.306;2023-04-24T15:43:12;11.20;86.50
8707;DHT22;4390;49.302;9.306;2023-04-24T15:45:39;11.30;86.30
8707;DHT22;4390;49.302;9.306;2023-04-24T15:48:07;11.30;86.40
8707;DHT22;4390;49.302;9.306;2023-04-24T15:50:34;11.30;87.10
8707;DHT22;4390;49.302;9.306;2023-04-24T15:53:02;11.40;87.30
8707;DHT22;4390;49.302;9.306;2023-04-24T15:55:29;11.30;87.20
8707;DHT22;4390;49.302;9.306;2023-04-24T15:57:56;11.10;87.80
8707;DHT22;4390;49.302;9.306;2023-04-24T16:00:23;11.00;87.20
8707;DHT22;4390;49.302;9.306;2023-04-24T16:02:50;10.90;87.40
8707;DHT22;4390;49.302;9.306;2023-04-24T16:05:18;11.00;88.00
8707;DHT22;4390;49.302;9.306;2023-04-24T16:07:47;10.80;86.90
8707;DHT22;4390;49.302;9.306;2023-04-24T16:10:14;10.50;87.30
8707;DHT22;4390;49.302;9.306;2023-04-24T16:12:43;10.70;87.60
8707;DHT22;4390;49.302;9.306;2023-04-24T16:15:14;10.70;87.20
8707;DHT22;4390;49.302;9.306;2023-04-24T16:17:43;10.70;87.30
8707;DHT22;4390;49.302;9.306;2023-04-24T16:20:12;10.80;87.20
8707;DHT22;4390;49.302;9.306;2023-04-24T16:22:41;10.80;87.60
8707;DHT22;4390;49.302;9.306;2023-04-24T16:25:09;11.10;87.20
8707;DHT22;4390;49.302;9.306;2023-04-24T16:27:37;11.20;87.00
8707;DHT22;4390;49.302;9.306;2023-04-24T16:30:05;11.20;87.00
8707;DHT22;4390;49.302;9.306;2023-04-24T16:32:32;11.20;86.90